createdAt,value
2022-12-19T00:01:51.696Z,40.40
2022-12-19T00:04:08.817Z,42.20
2022-12-19T00:06:22.283Z,42.70
2022-12-19T00:08:34.075Z,38.80
2022-12-19T00:10:57.946Z,39.00
2022-12-19T00:13:09.633Z,37.90
2022-12-19T00:15:21.833Z,36.80
2022-12-19T00:17:33.969Z,41.80
2022-12-19T00:19:49.005Z,36.30
2022-12-19T00:22:00.996Z,35.90
2022-12-19T00:24:20.586Z,37.30
2022-12-19T00:26:36.893Z,33.00
2022-12-19T00:28:51.826Z,37.30
2022-12-19T00:31:05.089Z,36.40
2022-12-19T00:33:17.145Z,42.90
2022-12-19T00:35:28.832Z,40.20
2022-12-19T00:37:42.814Z,40.10
2022-12-19T00:40:01.832Z,41.90
2022-12-19T00:42:13.623Z,44.30
2022-12-19T00:44:27.055Z,39.80
2022-12-19T00:46:39.252Z,40.60
2022-12-19T00:48:52.168Z,39.30
2022-12-19T00:51:08.360Z,36.50
2022-12-19T00:53:20.354Z,42.20
2022-12-19T00:55:32.247Z,41.10
2022-12-19T00:57:44.344Z,40.20
2022-12-19T00:59:56.441Z,39.10
2022-12-19T01:02:10.512Z,38.00
2022-12-19T01:04:31.274Z,39.40
2022-12-19T01:06:45.026Z,39.40
2022-12-19T01:08:57.527Z,39.90
2022-12-19T01:11:09.623Z,41.90
2022-12-19T01:13:27.350Z,37.40
2022-12-19T01:15:41.328Z,43.70
2022-12-19T01:17:53.399Z,42.30
2022-12-19T01:20:05.794Z,30.00
2022-12-19T01:22:18.404Z,37.90
2022-12-19T01:24:31.115Z,40.40
2022-12-19T01:26:43.315Z,39.40
2022-12-19T01:28:55.143Z,36.70
2022-12-19T01:31:07.308Z,37.80
2022-12-19T01:33:21.347Z,40.70
2022-12-19T01:35:33.143Z,35.20
2022-12-19T01:37:45.440Z,38.60
2022-12-19T01:39:57.125Z,40.80
2022-12-19T01:42:23.522Z,42.10
2022-12-19T01:44:36.783Z,35.80
2022-12-19T01:46:52.976Z,38.40
2022-12-19T01:49:10.603Z,38.70
2022-12-19T01:51:33.860Z,39.70
2022-12-19T01:53:53.126Z,37.20
2022-12-19T01:56:08.508Z,40.60
2022-12-19T01:58:21.076Z,38.90
2022-12-19T02:00:32.791Z,37.60
2022-12-19T02:02:52.749Z,40.20
2022-12-19T02:05:05.970Z,34.20
2022-12-19T02:07:20.213Z,38.40
2022-12-19T02:09:32.831Z,29.40
2022-12-19T02:11:44.723Z,37.40
2022-12-19T02:14:00.820Z,38.00
2022-12-19T02:16:30.916Z,38.20
2022-12-19T02:18:46.305Z,34.90
2022-12-19T02:21:06.190Z,34.90
2022-12-19T02:23:39.996Z,38.60
2022-12-19T02:26:18.819Z,35.90
2022-12-19T02:29:02.929Z,33.40
2022-12-19T02:31:31.025Z,38.60
2022-12-19T02:33:56.184Z,35.20
2022-12-19T02:36:16.150Z,33.70
2022-12-19T02:38:41.080Z,33.70
2022-12-19T02:41:10.535Z,31.90
2022-12-19T02:43:24.887Z,38.60
2022-12-19T02:45:39.807Z,36.00
2022-12-19T02:47:52.057Z,37.60
2022-12-19T02:50:05.814Z,37.90
2022-12-19T02:52:20.345Z,32.50
2022-12-19T02:54:34.290Z,37.50
2022-12-19T02:57:00.619Z,36.10
2022-12-19T02:59:24.186Z,28.70
2022-12-19T03:01:42.344Z,32.60
2022-12-19T03:04:17.672Z,31.80
2022-12-19T03:06:42.874Z,32.20
2022-12-19T03:09:04.393Z,30.20
2022-12-19T03:11:16.592Z,32.10
2022-12-19T03:13:40.062Z,35.40
2022-12-19T03:15:52.773Z,32.10
2022-12-19T03:18:06.609Z,32.30
2022-12-19T03:20:44.406Z,29.90
2022-12-19T03:22:56.199Z,32.40
2022-12-19T03:25:08.679Z,34.00
2022-12-19T03:27:33.399Z,33.30
2022-12-19T03:30:00.652Z,25.80
2022-12-19T03:32:15.546Z,28.30
2022-12-19T03:34:32.741Z,30.10
2022-12-19T03:36:48.935Z,32.40
2022-12-19T03:39:04.403Z,31.60
2022-12-19T03:41:39.541Z,31.30
2022-12-19T03:43:51.537Z,28.70
2022-12-19T03:46:14.382Z,29.40
2022-12-19T03:48:43.613Z,30.80
2022-12-19T03:51:08.484Z,27.30
2022-12-19T03:53:30.615Z,27.50
2022-12-19T03:55:49.877Z,27.60
2022-12-19T03:58:12.215Z,29.10
2022-12-19T04:00:26.364Z,26.80
2022-12-19T04:02:40.811Z,26.50
2022-12-19T04:04:58.932Z,24.70
2022-12-19T04:07:12.901Z,31.20
2022-12-19T04:09:25.101Z,29.30
2022-12-19T04:11:44.288Z,28.10
2022-12-19T04:14:01.378Z,28.00
2022-12-19T04:16:21.105Z,26.70
2022-12-19T04:18:33.965Z,25.80
2022-12-19T04:20:59.079Z,31.00
2022-12-19T04:23:37.586Z,27.10
2022-12-19T04:25:54.596Z,25.20
2022-12-19T04:28:18.781Z,25.80
2022-12-19T04:30:36.713Z,26.90
2022-12-19T04:32:50.548Z,26.30
2022-12-19T04:35:03.084Z,24.10
2022-12-19T04:37:14.746Z,28.30
2022-12-19T04:39:26.429Z,23.90
2022-12-19T04:41:38.117Z,28.10
2022-12-19T04:43:50.316Z,27.10
2022-12-19T04:46:02.002Z,29.30
2022-12-19T04:48:13.639Z,25.10
2022-12-19T04:50:25.787Z,20.50
2022-12-19T04:52:37.371Z,25.40
2022-12-19T04:54:49.165Z,25.90
2022-12-19T04:57:00.753Z,26.40
2022-12-19T04:59:12.639Z,22.90
2022-12-19T05:01:25.214Z,22.70
2022-12-19T05:03:37.505Z,27.10
2022-12-19T05:05:49.543Z,24.00
2022-12-19T05:08:01.649Z,27.20
2022-12-19T05:10:13.435Z,23.30
2022-12-19T05:12:25.256Z,27.60
2022-12-19T05:14:37.014Z,25.40
2022-12-19T05:16:49.212Z,26.50
2022-12-19T05:19:02.331Z,27.90
2022-12-19T05:21:13.903Z,25.10
2022-12-19T05:23:27.241Z,27.30
2022-12-19T05:25:39.032Z,25.30
2022-12-19T05:27:50.722Z,26.90
2022-12-19T05:30:02.515Z,24.40
2022-12-19T05:32:14.409Z,24.70
2022-12-19T05:34:26.193Z,24.90
2022-12-19T05:36:37.895Z,29.50
2022-12-19T05:38:49.973Z,26.80
2022-12-19T05:41:10.379Z,26.70
2022-12-19T05:43:22.357Z,24.30
2022-12-19T05:45:34.055Z,26.80
2022-12-19T05:47:49.528Z,25.00
2022-12-19T05:50:02.234Z,26.20
2022-12-19T05:52:14.024Z,25.20
2022-12-19T05:54:26.326Z,24.50
2022-12-19T05:56:37.914Z,25.20
2022-12-19T05:58:50.721Z,25.90
2022-12-19T06:01:11.737Z,27.20
2022-12-19T06:03:23.423Z,25.10
2022-12-19T06:05:38.483Z,27.30
2022-12-19T06:07:50.376Z,27.10
2022-12-19T06:10:02.372Z,24.00
2022-12-19T06:12:14.515Z,26.70
2022-12-19T06:14:26.880Z,24.30
2022-12-19T06:16:38.590Z,25.00
2022-12-19T06:18:50.904Z,26.40
2022-12-19T06:21:06.646Z,23.10
2022-12-19T06:23:19.361Z,29.20
2022-12-19T06:25:31.365Z,26.50
2022-12-19T06:27:42.938Z,27.20
2022-12-19T06:29:54.954Z,24.60
2022-12-19T06:32:06.822Z,25.70
2022-12-19T06:34:39.891Z,24.20
2022-12-19T06:36:57.536Z,24.40
2022-12-19T06:39:13.110Z,25.70
2022-12-19T06:41:44.508Z,28.30
2022-12-19T06:44:00.801Z,24.80
2022-12-19T06:46:12.813Z,26.00
2022-12-19T06:48:28.036Z,28.30
2022-12-19T06:50:40.023Z,26.40
2022-12-19T06:52:52.114Z,26.20
2022-12-19T06:55:04.722Z,26.20
2022-12-19T06:57:16.514Z,24.80
2022-12-19T06:59:28.946Z,27.50
2022-12-19T07:01:44.083Z,25.50
2022-12-19T07:03:57.315Z,27.00
2022-12-19T07:06:08.793Z,26.50
2022-12-19T07:08:20.948Z,25.40
2022-12-19T07:10:33.191Z,28.60
2022-12-19T07:12:45.389Z,28.60
2022-12-19T07:14:57.230Z,26.90
2022-12-19T07:17:09.276Z,27.90
2022-12-19T07:19:22.822Z,27.80
2022-12-19T07:21:35.721Z,27.50
2022-12-19T07:23:48.741Z,26.50
2022-12-19T07:26:01.354Z,24.30
2022-12-19T07:28:13.894Z,29.50
2022-12-19T07:30:25.857Z,22.80
2022-12-19T07:32:39.692Z,23.70
2022-12-19T07:34:51.273Z,27.80
2022-12-19T07:37:07.162Z,25.30
2022-12-19T07:39:19.260Z,29.30
2022-12-19T07:41:30.944Z,33.70
2022-12-19T07:43:42.870Z,30.40
2022-12-19T07:45:56.825Z,37.50
2022-12-19T07:48:08.777Z,39.10
2022-12-19T07:50:21.587Z,36.10
2022-12-19T07:52:32.969Z,34.10
2022-12-19T07:54:44.479Z,29.30
2022-12-19T07:56:56.485Z,30.60
2022-12-19T07:59:10.754Z,32.00
2022-12-19T08:01:22.915Z,31.20
2022-12-19T08:03:36.111Z,26.20
2022-12-19T08:05:47.739Z,29.30
2022-12-19T08:08:00.233Z,30.40
2022-12-19T08:10:14.918Z,28.70
2022-12-19T08:12:27.205Z,28.60
2022-12-19T08:14:39.262Z,33.70
2022-12-19T08:17:19.397Z,27.40
2022-12-19T08:19:27.459Z,32.10
2022-12-19T08:21:39.531Z,30.20
2022-12-19T08:23:51.145Z,29.30
2022-12-19T08:26:08.011Z,32.70
2022-12-19T08:28:20.112Z,26.70
2022-12-19T08:30:32.210Z,31.40
2022-12-19T08:32:45.425Z,29.30
2022-12-19T08:34:57.257Z,29.10
2022-12-19T08:37:09.441Z,35.00
2022-12-19T08:39:21.516Z,28.20
2022-12-19T08:41:33.408Z,32.20
2022-12-19T08:43:50.934Z,30.40
2022-12-19T08:46:03.650Z,27.50
2022-12-19T08:48:17.808Z,32.10
2022-12-19T08:50:29.906Z,29.40
2022-12-19T08:52:41.985Z,31.00
2022-12-19T08:54:53.782Z,31.30
2022-12-19T08:57:11.004Z,32.60
2022-12-19T08:59:31.555Z,31.10
2022-12-19T09:01:43.951Z,34.00
2022-12-19T09:05:04.763Z,35.10
2022-12-19T09:06:31.723Z,35.90
2022-12-19T09:08:44.040Z,34.50
2022-12-19T09:10:59.955Z,32.10
2022-12-19T09:13:12.356Z,33.70
2022-12-19T09:15:24.587Z,33.70
2022-12-19T09:17:36.321Z,31.30
2022-12-19T09:19:48.617Z,34.90
2022-12-19T09:22:00.925Z,31.60
2022-12-19T09:24:13.125Z,31.40
2022-12-19T09:26:27.378Z,30.50
2022-12-19T09:28:46.433Z,30.10
2022-12-19T09:31:04.333Z,32.60
2022-12-19T09:33:16.152Z,46.80
2022-12-19T09:35:30.549Z,67.40
2022-12-19T09:37:42.300Z,50.50
2022-12-19T09:39:58.721Z,36.90
2022-12-19T09:42:40.635Z,44.10
2022-12-19T09:45:16.995Z,35.90
2022-12-19T09:47:43.905Z,29.80
2022-12-19T09:49:58.762Z,30.00
2022-12-19T09:52:46.701Z,29.20
2022-12-19T09:55:21.529Z,29.40
2022-12-19T09:57:48.353Z,35.60
2022-12-19T10:00:06.336Z,36.90
2022-12-19T10:02:34.375Z,42.60
2022-12-19T10:05:31.141Z,53.40
2022-12-19T10:08:01.766Z,36.80
2022-12-19T10:12:36.267Z,32.20
2022-12-19T10:15:20.949Z,34.70
2022-12-19T10:17:58.011Z,32.00
2022-12-19T10:20:16.272Z,34.40
2022-12-19T10:22:42.403Z,37.50
2022-12-19T10:25:21.029Z,45.90
2022-12-19T10:27:57.237Z,34.70
2022-12-19T10:30:21.263Z,32.60
2022-12-19T10:32:47.000Z,34.80
2022-12-19T10:34:59.581Z,32.80
2022-12-19T10:37:26.881Z,32.80
2022-12-19T10:39:54.815Z,99.70
2022-12-19T10:42:19.731Z,204.70
2022-12-19T10:44:38.540Z,171.00
2022-12-19T10:49:18.042Z,137.60
2022-12-19T10:51:32.619Z,87.00
2022-12-19T10:53:54.105Z,73.80
2022-12-19T10:56:20.720Z,40.50
2022-12-19T11:01:02.491Z,30.20
2022-12-19T11:03:16.935Z,32.30
2022-12-19T11:05:42.556Z,51.60
2022-12-19T11:08:04.106Z,39.90
2022-12-19T11:11:43.503Z,35.90
2022-12-19T11:17:52.175Z,33.70
2022-12-19T11:19:38.970Z,32.40
2022-12-19T11:27:35.081Z,37.70
2022-12-19T11:30:41.545Z,132.30
2022-12-19T11:30:45.724Z,78.30
2022-12-19T11:32:36.520Z,64.10
2022-12-19T11:34:50.165Z,100.00
2022-12-19T11:37:21.446Z,59.20
2022-12-19T11:39:46.928Z,40.60
2022-12-19T11:42:24.211Z,30.40
2022-12-19T11:45:01.699Z,58.70
2022-12-19T11:47:28.550Z,100.80
2022-12-19T11:50:24.789Z,187.70
2022-12-19T11:53:13.013Z,80.40
2022-12-19T11:55:26.755Z,62.20
2022-12-19T11:57:41.416Z,47.50
2022-12-19T11:59:56.454Z,38.90
2022-12-19T12:02:39.099Z,32.00
2022-12-19T12:05:06.552Z,47.20
2022-12-19T12:07:41.481Z,35.10
2022-12-19T12:18:25.554Z,34.90
2022-12-19T12:21:04.074Z,36.60
2022-12-19T12:26:41.350Z,54.60
2022-12-19T12:31:06.482Z,35.80
2022-12-19T12:31:21.869Z,39.90
2022-12-19T12:31:23.448Z,37.10
2022-12-19T12:31:44.604Z,40.20
2022-12-19T12:31:53.070Z,35.00
2022-12-19T12:35:40.929Z,52.30
2022-12-19T12:38:40.448Z,103.60
2022-12-19T12:41:10.077Z,69.20
2022-12-19T12:43:51.256Z,99.20
2022-12-19T12:46:05.137Z,80.70
2022-12-19T12:48:41.153Z,112.00
2022-12-19T12:50:55.378Z,46.40
2022-12-19T12:53:10.057Z,42.00
2022-12-19T12:55:30.048Z,38.80
2022-12-19T12:57:41.838Z,31.60
2022-12-19T13:00:26.794Z,36.20
2022-12-19T13:02:39.008Z,31.70
2022-12-19T13:04:58.868Z,36.50
2022-12-19T13:07:27.047Z,31.20
2022-12-19T13:12:14.799Z,33.10
2022-12-19T13:14:37.234Z,36.60
2022-12-19T13:16:50.968Z,41.30
2022-12-19T13:19:24.185Z,31.50
2022-12-19T13:22:09.545Z,29.90
2022-12-19T13:24:23.785Z,32.70
2022-12-19T13:26:50.153Z,36.00
2022-12-19T13:29:33.036Z,30.70
2022-12-19T13:32:09.305Z,31.60
2022-12-19T13:34:21.099Z,27.50
2022-12-19T13:40:00.222Z,29.40
2022-12-19T13:40:00.760Z,26.40
2022-12-19T13:42:40.396Z,40.00
2022-12-19T13:44:54.809Z,33.70
2022-12-19T13:47:06.640Z,31.10
2022-12-19T13:49:27.484Z,28.00
2022-12-19T13:52:02.472Z,27.80
2022-12-19T13:54:20.001Z,26.70
2022-12-19T13:56:32.117Z,29.70
2022-12-19T13:58:49.833Z,47.60
2022-12-19T14:01:07.811Z,303.80
2022-12-19T14:03:40.837Z,323.70
2022-12-19T14:06:15.996Z,300.40
2022-12-19T14:08:25.665Z,226.10
2022-12-19T14:11:40.295Z,222.00
2022-12-19T14:13:54.102Z,102.00
2022-12-19T14:16:18.594Z,70.60
2022-12-19T14:18:44.411Z,47.90
2022-12-19T14:22:06.855Z,37.30
2022-12-19T14:23:50.923Z,38.40
2022-12-19T14:28:17.163Z,30.60
2022-12-19T14:28:54.693Z,31.30
2022-12-19T14:31:11.866Z,25.60
2022-12-19T14:33:45.424Z,29.70
2022-12-19T14:36:14.667Z,28.40
2022-12-19T14:39:23.844Z,26.30
2022-12-19T14:41:09.562Z,27.70
2022-12-19T14:43:59.030Z,27.10
2022-12-19T14:52:35.101Z,27.70
2022-12-19T14:54:03.014Z,31.10
2022-12-19T14:54:29.350Z,39.80
2022-12-19T14:55:18.604Z,41.60
2022-12-19T14:56:59.045Z,36.80
2022-12-19T14:59:35.930Z,38.70
2022-12-19T15:01:53.938Z,30.40
2022-12-19T15:04:53.140Z,30.00
2022-12-19T15:07:08.677Z,36.70
2022-12-19T15:11:03.774Z,39.90
2022-12-19T15:14:04.135Z,33.60
2022-12-19T15:15:18.408Z,31.50
2022-12-19T15:17:29.994Z,41.00
2022-12-19T15:19:41.987Z,37.60
2022-12-19T15:21:53.880Z,39.30
2022-12-19T15:24:05.879Z,39.20
2022-12-19T15:26:32.849Z,37.10
2022-12-19T15:28:51.296Z,37.60
2022-12-19T15:31:18.799Z,44.10
2022-12-19T15:33:35.659Z,37.10
2022-12-19T15:35:47.838Z,50.60
2022-12-19T15:37:59.938Z,37.20
2022-12-19T15:40:17.071Z,33.90
2022-12-19T15:42:29.657Z,33.30
2022-12-19T15:44:43.831Z,36.50
2022-12-19T15:46:55.842Z,39.80
2022-12-19T15:49:15.519Z,33.60
2022-12-19T15:51:27.398Z,33.20
2022-12-19T15:53:41.364Z,29.70
2022-12-19T15:55:56.509Z,31.40
2022-12-19T15:58:08.361Z,32.10
2022-12-19T16:00:27.859Z,33.10
2022-12-19T16:05:12.229Z,29.60
2022-12-19T16:07:27.775Z,35.60
2022-12-19T16:09:40.280Z,30.70
2022-12-19T16:11:54.487Z,34.90
2022-12-19T16:14:12.158Z,36.00
2022-12-19T16:16:25.549Z,33.00
2022-12-19T16:18:38.122Z,40.60
2022-12-19T16:20:50.195Z,36.20
2022-12-19T16:23:02.706Z,34.00
2022-12-19T16:25:15.216Z,34.90
2022-12-19T16:27:31.916Z,34.60
2022-12-19T16:29:43.697Z,33.10
2022-12-19T16:31:55.420Z,34.50
2022-12-19T16:34:19.976Z,34.30
2022-12-19T16:36:31.867Z,54.30
2022-12-19T16:38:43.967Z,113.30
2022-12-19T16:40:57.396Z,132.30
2022-12-19T16:43:28.847Z,123.50
2022-12-19T16:45:40.552Z,101.50
2022-12-19T16:47:53.051Z,77.60
2022-12-19T16:50:18.343Z,55.80
2022-12-19T16:52:30.647Z,63.00
2022-12-19T16:54:42.349Z,59.40
2022-12-19T16:56:54.801Z,49.30
2022-12-19T16:59:15.751Z,44.70
2022-12-19T17:01:29.290Z,39.40
2022-12-19T17:03:44.932Z,33.70
2022-12-19T17:05:56.856Z,41.30
2022-12-19T17:08:13.687Z,37.90
2022-12-19T17:10:33.350Z,35.80
2022-12-19T17:15:02.672Z,37.40
2022-12-19T17:17:16.085Z,36.20
2022-12-19T17:19:36.262Z,33.00
2022-12-19T17:21:49.278Z,33.80
2022-12-19T17:24:01.195Z,39.40
2022-12-19T17:26:17.593Z,37.30
2022-12-19T17:28:30.280Z,37.30
2022-12-19T17:30:48.789Z,37.10
2022-12-19T17:33:00.824Z,40.30
2022-12-19T17:35:22.523Z,38.90
2022-12-19T17:37:37.824Z,37.70
2022-12-19T17:39:49.421Z,37.60
2022-12-19T17:42:13.889Z,35.80
2022-12-19T17:44:26.062Z,37.00
2022-12-19T17:46:39.418Z,38.20
2022-12-19T17:48:54.178Z,37.20
2022-12-19T17:51:06.377Z,40.70
2022-12-19T17:53:18.479Z,35.60
2022-12-19T17:55:31.402Z,38.50
2022-12-19T17:57:43.592Z,38.10
2022-12-19T17:59:55.811Z,40.20
2022-12-19T18:02:25.334Z,35.80
2022-12-19T18:04:42.937Z,37.70
2022-12-19T18:06:56.042Z,41.30
2022-12-19T18:09:31.694Z,39.70
2022-12-19T18:11:51.717Z,36.00
2022-12-19T18:14:05.739Z,37.40
2022-12-19T18:16:23.073Z,39.00
2022-12-19T18:18:36.374Z,38.40
2022-12-19T18:20:49.236Z,41.20
2022-12-19T18:23:03.156Z,36.40
2022-12-19T18:25:22.199Z,34.70
2022-12-19T18:27:37.769Z,38.70
2022-12-19T18:29:50.510Z,41.10
2022-12-19T18:32:02.459Z,39.50
2022-12-19T18:34:26.231Z,37.70
2022-12-19T18:36:42.862Z,40.70
2022-12-19T18:38:56.727Z,35.80
2022-12-19T18:41:11.895Z,40.50
2022-12-19T18:43:25.106Z,41.30
2022-12-19T18:45:41.605Z,39.30
2022-12-19T18:48:02.574Z,42.80
2022-12-19T18:50:19.799Z,41.20
2022-12-19T18:52:32.520Z,39.60
2022-12-19T18:54:45.338Z,40.70
2022-12-19T18:56:58.157Z,46.40
2022-12-19T18:59:11.591Z,42.30
2022-12-19T19:01:28.740Z,45.50
2022-12-19T19:03:44.970Z,44.80
2022-12-19T19:05:57.803Z,42.50
2022-12-19T19:08:18.748Z,40.90
2022-12-19T19:10:36.162Z,38.40
2022-12-19T19:12:56.091Z,42.30
2022-12-19T19:15:09.421Z,43.80
2022-12-19T19:17:40.417Z,44.40
2022-12-19T19:20:10.677Z,46.90
2022-12-19T19:22:26.591Z,47.00
2022-12-19T19:24:39.072Z,40.30
2022-12-19T19:26:51.571Z,41.70
2022-12-19T19:29:04.238Z,36.60
2022-12-19T19:31:19.129Z,40.50
2022-12-19T19:33:36.979Z,45.10
2022-12-19T19:35:54.942Z,42.20
2022-12-19T19:38:08.959Z,41.70
2022-12-19T19:40:20.764Z,42.30
2022-12-19T19:42:33.149Z,44.00
2022-12-19T19:44:46.300Z,51.10
2022-12-19T19:46:58.427Z,60.50
2022-12-19T19:49:10.684Z,42.30
2022-12-19T19:51:22.868Z,47.20
2022-12-19T19:53:36.398Z,51.40
2022-12-19T19:55:57.612Z,50.90
2022-12-19T19:58:09.809Z,49.90
2022-12-19T20:00:22.627Z,64.60
2022-12-19T20:02:35.136Z,51.80
2022-12-19T20:04:47.453Z,56.60
2022-12-19T20:06:59.732Z,50.40
2022-12-19T20:09:11.526Z,47.80
2022-12-19T20:11:23.211Z,44.30
2022-12-19T20:13:35.325Z,47.60
2022-12-19T20:15:49.926Z,74.60
2022-12-19T20:18:01.967Z,60.80
2022-12-19T20:20:13.853Z,49.50
2022-12-19T20:22:26.155Z,45.40
2022-12-19T20:24:38.047Z,40.50
2022-12-19T20:26:49.732Z,41.40
2022-12-19T20:29:02.242Z,41.90
2022-12-19T20:31:14.082Z,75.30
2022-12-19T20:33:26.536Z,67.70
2022-12-19T20:35:38.427Z,48.20
2022-12-19T20:37:50.533Z,46.30
2022-12-19T20:40:02.131Z,43.40
2022-12-19T20:42:14.004Z,37.50
2022-12-19T20:44:26.305Z,36.60
2022-12-19T20:46:38.957Z,37.00
2022-12-19T20:48:51.419Z,43.10
2022-12-19T20:51:04.952Z,48.70
2022-12-19T20:53:16.433Z,44.10
2022-12-19T20:55:28.119Z,39.10
2022-12-19T20:57:39.983Z,43.00
2022-12-19T20:59:52.620Z,38.10
2022-12-19T21:02:05.057Z,37.90
2022-12-19T21:04:17.598Z,34.90
2022-12-19T21:06:29.971Z,43.80
2022-12-19T21:08:42.346Z,40.50
2022-12-19T21:10:55.153Z,43.90
2022-12-19T21:13:06.945Z,40.60
2022-12-19T21:18:03.335Z,43.00
2022-12-19T21:20:15.606Z,38.00
2022-12-19T21:22:27.597Z,39.40
2022-12-19T21:24:39.818Z,40.80
2022-12-19T21:26:58.143Z,42.40
2022-12-19T21:29:11.663Z,42.70
2022-12-19T21:31:27.354Z,40.10
2022-12-19T21:33:39.650Z,40.40
2022-12-19T21:35:51.439Z,38.50
2022-12-19T21:38:04.797Z,40.60
2022-12-19T21:40:23.544Z,40.80
2022-12-19T21:42:36.672Z,40.10
2022-12-19T21:44:50.752Z,38.70
2022-12-19T21:47:07.990Z,41.40
2022-12-19T21:49:26.367Z,37.00
2022-12-19T21:51:38.988Z,39.30
2022-12-19T21:53:57.175Z,37.30
2022-12-19T21:56:22.342Z,38.00
2022-12-19T21:58:36.386Z,38.40
2022-12-19T22:00:49.400Z,41.10
2022-12-19T22:03:15.506Z,39.10
2022-12-19T22:05:28.207Z,38.80
2022-12-19T22:07:42.274Z,37.70
2022-12-19T22:09:55.784Z,38.20
2022-12-19T22:12:13.237Z,36.70
2022-12-19T22:14:29.756Z,36.80
2022-12-19T22:16:44.686Z,32.40
2022-12-19T22:19:07.465Z,35.40
2022-12-19T22:21:20.954Z,33.40
2022-12-19T22:23:33.438Z,34.60
2022-12-19T22:25:45.288Z,36.70
2022-12-19T22:27:57.121Z,35.20
2022-12-19T22:30:11.308Z,33.80
2022-12-19T22:32:23.366Z,36.00
2022-12-19T22:34:35.463Z,33.50
2022-12-19T22:36:49.125Z,35.40
2022-12-19T22:39:04.236Z,34.50
2022-12-19T22:41:18.109Z,34.40
2022-12-19T22:43:30.412Z,32.20
2022-12-19T22:45:42.185Z,33.90
2022-12-19T22:47:54.287Z,34.00
2022-12-19T22:50:07.012Z,32.70
2022-12-19T22:52:19.966Z,33.80
2022-12-19T22:54:32.426Z,32.80
2022-12-19T22:56:44.012Z,32.90
2022-12-19T22:58:59.387Z,32.30
2022-12-19T23:01:14.943Z,34.10
2022-12-19T23:03:27.229Z,33.20
2022-12-19T23:05:39.363Z,33.00
2022-12-19T23:07:51.149Z,31.40
2022-12-19T23:10:03.657Z,30.60
2022-12-19T23:12:15.342Z,32.80
2022-12-19T23:14:27.012Z,31.90
2022-12-19T23:16:38.984Z,34.00
2022-12-19T23:18:51.022Z,31.40
2022-12-19T23:21:09.450Z,31.40
2022-12-19T23:23:21.565Z,30.20
2022-12-19T23:25:38.274Z,28.50
2022-12-19T23:27:50.260Z,31.00
2022-12-19T23:30:01.900Z,29.60
2022-12-19T23:32:13.933Z,31.10
2022-12-19T23:34:26.044Z,29.30
2022-12-19T23:39:11.740Z,31.80
2022-12-19T23:41:24.860Z,30.20
2022-12-19T23:43:37.781Z,30.40
2022-12-19T23:45:52.265Z,29.20
2022-12-19T23:48:04.531Z,29.80
2022-12-19T23:50:16.737Z,29.00
2022-12-19T23:52:28.727Z,30.90
2022-12-19T23:54:40.415Z,31.00
2022-12-19T23:56:53.655Z,28.70
2022-12-19T23:59:05.937Z,29.30
